Time;durP1;ratioP1;P1;durP2;ratioP2;P2;SDS_P1;SDS_P2;PMS_P1;PMS_P2;Temp;Humidity;BMP_temperature;BMP_pressure;BME280_temperature;BME280_humidity;BME280_pressure;Samples;Min_cycle;Max_cycle;Signal;HPM_P1;HPM_P2
2023/09/02 00:04:03;;;;;;;21.98;17.08;;;;;;;17.79;72.27;98075.22;10370023;28;20035;-54
2023/09/02 00:09:02;;;;;;;21.80;16.60;;;;;;;17.81;72.45;98076.03;10369688;28;20069;-54
2023/09/02 00:14:01;;;;;;;18.92;16.15;;;;;;;17.82;72.41;98072.50;10369324;28;20068;-54
2023/09/02 00:19:00;;;;;;;20.33;17.35;;;;;;;17.85;72.48;98072.44;10369967;28;20128;-54
2023/09/02 00:24:03;;;;;;;21.55;17.20;;;;;;;17.92;72.18;98071.38;10367413;28;20103;-58
2023/09/02 00:29:02;;;;;;;21.63;16.98;;;;;;;17.53;72.00;98006.69;10368127;28;20072;-52
2023/09/02 00:34:01;;;;;;;20.80;16.98;;;;;;;17.94;72.04;98082.69;10368725;28;20072;-53
2023/09/02 00:39:00;;;;;;;23.63;17.60;;;;;;;17.89;71.76;98069.66;10365825;28;20037;-53
2023/09/02 00:44:00;;;;;;;23.98;16.58;;;;;;;17.82;71.90;98060.22;10364942;28;20072;-53
2023/09/02 00:49:00;;;;;;;18.60;16.58;;;;;;;17.81;71.86;98066.38;10364698;28;20116;-52
2023/09/02 00:53:59;;;;;;;23.65;17.15;;;;;;;17.67;72.33;98064.06;10364503;28;20084;-52
2023/09/02 00:59:03;;;;;;;20.60;17.27;;;;;;;17.62;72.76;98067.72;10364693;28;20123;-53
2023/09/02 01:04:03;;;;;;;23.27;17.83;;;;;;;17.48;73.13;98070.69;10363734;28;20065;-53
2023/09/02 01:09:04;;;;;;;22.38;17.55;;;;;;;17.39;73.44;98063.03;10364415;28;20075;-53
2023/09/02 01:14:03;;;;;;;23.13;17.95;;;;;;;17.28;73.50;98069.34;10363006;28;20084;-53
2023/09/02 01:19:02;;;;;;;21.60;18.38;;;;;;;17.23;74.09;98073.84;10364562;28;20037;-51
2023/09/02 01:24:02;;;;;;;24.65;18.25;;;;;;;17.10;74.81;98075.91;10363817;28;20068;-53
2023/09/02 01:29:06;;;;;;;23.70;18.30;;;;;;;17.01;75.16;98078.72;10361534;28;20044;-54
2023/09/02 01:34:07;;;;;;;21.48;17.38;;;;;;;16.89;75.16;98079.84;10363243;28;20111;-57
2023/09/02 01:39:09;;;;;;;23.17;18.35;;;;;;;16.79;75.26;98065.16;10363534;28;20064;-54
2023/09/02 01:44:10;;;;;;;24.92;18.95;;;;;;;16.76;75.13;98073.09;10362792;28;20092;-54
2023/09/02 01:49:10;;;;;;;21.90;18.13;;;;;;;16.79;75.68;98086.13;10363011;28;20061;-57
2023/09/02 01:54:09;;;;;;;21.48;18.10;;;;;;;16.61;75.67;98068.19;10362238;28;20087;-53
2023/09/02 01:59:08;;;;;;;22.40;17.38;;;;;;;16.52;76.99;98096.28;10376484;28;20072;-53
2023/09/02 02:04:09;;;;;;;22.55;18.10;;;;;;;16.36;78.13;98099.22;10363277;28;20107;-55
2023/09/02 02:09:52;;;;;;;23.50;18.38;;;;;;;16.29;78.02;98108.94;10363023;28;20075;-54
2023/09/02 02:14:50;;;;;;;24.25;17.85;;;;;;;16.21;78.87;98105.63;10360923;28;20075;-54
2023/09/02 02:19:50;;;;;;;21.23;18.27;;;;;;;16.18;78.65;98116.13;10384787;28;20032;-54
2023/09/02 02:24:49;;;;;;;22.33;18.75;;;;;;;16.04;79.08;98098.94;10370957;28;20056;-53
2023/09/02 02:29:47;;;;;;;;;;;;;;;16.07;79.48;98132.91;10370531;28;20032;-58
2023/09/02 02:34:46;;;;;;;26.63;20.60;;;;;;;16.00;79.36;98127.81;10370711;28;19967;-54
2023/09/02 02:39:45;;;;;;;;;;;;;;;16.00;79.51;98127.81;10370804;28;20056;-54
2023/09/02 02:44:44;;;;;;;26.20;20.00;;;;;;;15.98;79.61;98126.97;10369957;28;19994;-53
2023/09/02 02:49:43;;;;;;;;;;;;;;;15.92;79.70;98127.91;10369167;28;20041;-52
2023/09/02 02:54:42;;;;;;;24.10;18.98;;;;;;;15.88;80.07;98128.88;10369328;28;19924;-53
2023/09/02 02:59:40;;;;;;;;;;;;;;;15.84;79.96;98121.94;10369281;28;20056;-53
2023/09/02 03:04:40;;;;;;;23.75;19.08;;;;;;;15.84;79.73;98121.94;10369222;28;19928;-53
2023/09/02 03:09:40;;;;;;;;;;;;;;;15.81;80.11;98116.75;10369000;28;20492;-54
2023/09/02 03:14:39;;;;;;;27.87;19.47;;;;;;;15.77;80.75;98120.28;10367827;28;19951;-53
2023/09/02 03:19:37;;;;;;;;;;;;;;;15.74;80.57;98109.84;10350232;28;20275;-53
2023/09/02 03:24:36;;;;;;;25.20;19.60;;;;;;;15.60;80.78;98103.09;10371087;28;20426;-52
2023/09/02 03:29:35;;;;;;;;;;;;;;;15.67;81.16;98120.44;10369699;28;20440;-53
2023/09/02 03:34:34;;;;;;;25.38;19.20;;;;;;;15.66;80.96;98126.53;10368632;28;20356;-54
2023/09/02 03:39:33;;;;;;;;;;;;;;;15.62;82.13;98127.50;10370523;28;20559;-54
2023/09/02 03:44:32;;;;;;;25.43;19.87;;;;;;;15.57;82.48;98136.28;10369577;28;19956;-54
2023/09/02 03:49:31;;;;;;;;;;;;;;;15.56;83.48;98124.97;10369317;28;20112;-54
2023/09/02 03:54:29;;;;;;;24.95;19.63;;;;;;;15.57;83.32;98134.53;10369434;28;19909;-54
2023/09/02 03:59:28;;;;;;;;;;;;;;;15.57;83.05;98137.13;10371015;28;20137;-54
2023/09/02 04:04:27;;;;;;;25.55;19.42;;;;;;;15.50;83.08;98135.50;10370520;28;19917;-53
2023/09/02 04:09:27;;;;;;;;;;;;;;;15.52;82.85;98133.72;10370425;28;20476;-54
2023/09/02 04:14:26;;;;;;;29.00;18.90;;;;;;;15.55;82.74;98133.72;10369715;28;20710;-53
2023/09/02 04:19:25;;;;;;;23.23;19.05;;;;;;;15.65;82.63;98127.44;10369636;28;20076;-53
2023/09/02 04:24:24;;;;;;;;;;;;;;;15.71;82.35;98130.84;10369537;28;20028;-52
2023/09/02 04:29:23;;;;;;;28.40;20.67;;;;;;;15.76;82.07;98140.34;10369672;28;19920;-53
2023/09/02 04:34:22;;;;;;;;;;;;;;;15.35;83.10;98133.13;10382427;28;20116;-53
2023/09/02 04:39:21;;;;;;;22.13;17.85;;;;;;;15.28;83.40;98142.78;10386075;28;19956;-53
2023/09/02 04:44:19;;;;;;;;;;;;;;;15.24;83.44;98146.34;10382690;28;20031;-52
2023/09/02 04:49:18;;;;;;;23.35;18.65;;;;;;;15.00;82.84;98110.94;10392749;28;20311;-52
2023/09/02 04:54:17;;;;;;;;;;;;;;;15.13;83.06;98163.91;10408944;28;20463;-52
2023/09/02 04:59:16;;;;;;;23.50;19.55;;;;;;;15.10;83.59;98162.19;10378515;28;19916;-53
2023/09/02 05:04:15;;;;;;;30.38;20.75;;;;;;;15.32;83.40;98164.53;10386155;28;20115;-53
2023/09/02 05:09:14;;;;;;;;;;;;;;;15.58;82.89;98167.66;10388118;28;20156;-52
2023/09/02 05:14:12;;;;;;;26.90;20.55;;;;;;;15.82;82.15;98166.44;10390422;28;19938;-53
2023/09/02 05:19:11;;;;;;;;;;;;;;;15.99;81.87;98163.56;10379698;28;20029;-53
2023/09/02 05:24:10;;;;;;;27.27;20.95;;;;;;;16.19;81.48;98167.63;10375993;28;20388;-53
2023/09/02 05:29:09;;;;;;;;;;;;;;;16.46;80.71;98169.72;10370411;28;20052;-53
2023/09/02 05:34:13;;;;;;;22.25;18.92;;;;;;;16.64;80.25;98154.59;10370674;28;20960;-52
2023/09/02 05:39:12;;;;;;;24.73;19.55;;;;;;;16.90;78.95;98154.09;10370882;28;20079;-53
2023/09/02 05:44:12;;;;;;;26.83;20.73;;;;;;;16.99;78.61;98122.47;10367548;28;20075;-53
2023/09/02 05:49:12;;;;;;;33.90;25.17;;;;;;;17.24;77.32;98146.41;10372725;28;20068;-53
2023/09/02 05:54:11;;;;;;;26.83;20.35;;;;;;;17.40;76.44;98151.31;10366073;28;20151;-53
2023/09/02 05:59:10;;;;;;;25.42;18.52;;;;;;;17.46;76.25;98140.69;10371374;28;20059;-52
2023/09/02 06:04:09;;;;;;;;;;;;;;;17.70;76.07;98147.13;10371199;28;20120;-52
2023/09/02 06:09:10;;;;;;;23.13;18.97;;;;;;;18.01;75.04;98152.56;10369303;28;19995;-53
2023/09/02 06:14:08;;;;;;;20.92;18.40;;;;;;;18.26;73.34;98157.19;10368980;28;20080;-52
2023/09/02 06:19:10;;;;;;;22.30;18.77;;;;;;;18.39;72.69;98156.81;10373605;28;20033;-52
2023/09/02 06:24:11;;;;;;;22.15;17.40;;;;;;;18.54;71.12;98154.69;10371476;28;20445;-53
2023/09/02 06:29:10;;;;;;;21.13;17.75;;;;;;;18.61;71.03;98149.22;10368620;28;20508;-53
2023/09/02 06:34:09;;;;;;;20.50;17.45;;;;;;;18.88;70.15;98157.31;10367688;28;20545;-53
2023/09/02 06:39:08;;;;;;;20.52;16.52;;;;;;;19.10;68.85;98148.78;10370557;28;20947;-52
2023/09/02 06:44:07;;;;;;;18.10;15.05;;;;;;;19.27;67.97;98148.28;10368771;28;20116;-53
2023/09/02 06:49:06;;;;;;;18.23;15.00;;;;;;;19.44;66.85;98157.41;10370536;28;20116;-53
2023/09/02 06:54:06;;;;;;;20.20;15.23;;;;;;;19.52;65.28;98116.84;10350233;28;20139;-53
2023/09/02 06:59:04;;;;;;;17.88;14.40;;;;;;;19.90;63.88;98146.38;10347505;28;20100;-53
2023/09/02 07:04:03;;;;;;;15.90;13.70;;;;;;;20.09;62.99;98150.13;10326671;28;20037;-52
2023/09/02 07:09:02;;;;;;;15.40;13.55;;;;;;;20.31;62.70;98149.44;10305934;28;20048;-52
2023/09/02 07:14:02;;;;;;;16.48;13.15;;;;;;;20.64;62.63;98153.56;10325979;28;20141;-53
2023/09/02 07:19:03;;;;;;;16.35;12.80;;;;;;;20.88;60.33;98135.13;10319582;28;20516;-53
2023/09/02 07:24:02;;;;;;;14.75;12.45;;;;;;;20.97;58.56;98134.78;10326580;28;20117;-53
2023/09/02 07:29:01;;;;;;;14.20;11.52;;;;;;;21.25;57.71;98129.34;10320916;28;20057;-53
2023/09/02 07:34:00;;;;;;;13.48;11.68;;;;;;;21.59;56.83;98129.81;10314237;28;20484;-53
2023/09/02 07:38:59;;;;;;;13.90;11.20;;;;;;;21.86;54.48;98125.22;10325012;28;20412;-53
2023/09/02 07:43:58;;;;;;;18.58;10.75;;;;;;;22.22;54.93;98132.56;10319566;28;20128;-53
2023/09/02 07:48:57;;;;;;;11.20;10.00;;;;;;;22.58;53.79;98124.88;10324983;28;20069;-53
2023/09/02 07:53:56;;;;;;;10.95;9.40;;;;;;;22.87;50.89;98120.09;10325163;28;20120;-53
2023/09/02 07:58:55;;;;;;;9.43;8.15;;;;;;;22.93;48.43;98118.03;10344954;28;20059;-53
2023/09/02 08:03:54;;;;;;;9.55;7.32;;;;;;;23.13;47.66;98116.25;10358079;28;20123;-54
2023/09/02 08:08:53;;;;;;;10.18;8.23;;;;;;;23.32;48.25;98100.38;10365962;28;20128;-53
2023/09/02 08:13:52;;;;;;;9.48;8.07;;;;;;;23.57;47.21;98122.13;10364092;28;20432;-54
2023/09/02 08:18:51;;;;;;;12.73;7.53;;;;;;;23.85;47.39;98124.31;10366243;28;20500;-54
2023/09/02 08:23:50;;;;;;;8.85;6.90;;;;;;;23.87;45.76;98103.03;10361288;28;20035;-54
2023/09/02 08:28:49;;;;;;;10.02;7.32;;;;;;;24.25;44.59;98118.84;10359881;28;20049;-54
2023/09/02 08:33:48;;;;;;;8.95;7.30;;;;;;;24.34;44.47;98081.25;10365098;28;20020;-54
2023/09/02 08:38:47;;;;;;;10.60;7.68;;;;;;;24.87;44.81;98116.53;10361827;28;20474;-54
2023/09/02 08:43:47;;;;;;;10.73;8.73;;;;;;;25.00;43.20;98106.97;10362793;28;20471;-54
2023/09/02 08:48:47;;;;;;;9.75;7.80;;;;;;;25.18;43.43;98107.78;10363593;28;20053;-54
2023/09/02 08:53:47;;;;;;;9.48;8.18;;;;;;;25.52;43.01;98095.28;10362268;28;20120;-55
2023/09/02 08:58:46;;;;;;;9.35;7.95;;;;;;;25.72;42.08;98100.34;10361658;28;20088;-55
2023/09/02 09:03:52;;;;;;;9.27;7.25;;;;;;;25.91;42.10;98088.66;10360293;28;20120;-55
2023/09/02 09:08:55;;;;;;;8.73;7.03;;;;;;;25.72;40.43;98087.06;10347487;28;20116;-55
2023/09/02 09:13:58;;;;;;;14.30;7.25;;;;;;;25.89;40.10;98086.09;10352320;28;20112;-55
2023/09/02 09:19:00;;;;;;;8.38;7.00;;;;;;;26.10;38.50;98077.81;10354039;28;20120;-54
2023/09/02 09:23:59;;;;;;;7.47;6.60;;;;;;;26.31;38.75;98060.59;10338064;28;20137;-53
2023/09/02 09:28:59;;;;;;;6.22;5.63;;;;;;;26.40;37.87;98074.31;10350531;28;20135;-53
2023/09/02 09:34:00;;;;;;;8.70;6.07;;;;;;;26.72;38.38;98062.53;10344373;28;20136;-53
2023/09/02 09:39:01;;;;;;;6.25;5.55;;;;;;;26.57;37.95;98066.97;10350744;28;20136;-53
2023/09/02 09:44:14;;;;;;;5.78;5.20;;;;;;;26.88;37.09;98061.59;10365412;28;20063;-53
2023/09/02 09:49:39;;;;;;;7.57;5.88;;;;;;;27.03;37.08;98046.47;10364923;28;20162;-53
2023/09/02 09:54:41;;;;;;;6.25;5.65;;;;;;;27.12;36.63;98046.75;10364822;28;20088;-53
2023/09/02 09:59:50;;;;;;;7.32;6.18;;;;;;;27.40;36.79;98045.81;10359918;28;20071;-53
2023/09/02 10:04:57;;;;;;;5.80;5.20;;;;;;;27.64;35.75;98042.53;10364853;28;20552;-54
2023/09/02 10:09:59;;;;;;;9.77;5.57;;;;;;;27.75;36.02;98039.13;10363651;28;20069;-54
2023/09/02 10:14:59;;;;;;;7.50;5.78;;;;;;;27.57;36.35;98042.09;10363208;28;20840;-54
2023/09/02 10:19:58;;;;;;;8.38;5.88;;;;;;;27.80;36.04;98031.72;10365385;28;20102;-54
2023/09/02 10:25:24;;;;;;;6.28;5.68;;;;;;;27.74;35.48;98032.97;10366356;28;20107;-54
2023/09/02 10:30:30;;;;;;;7.25;5.55;;;;;;;27.80;35.23;98032.56;10340578;28;20075;-54
2023/09/02 10:35:31;;;;;;;7.38;5.68;;;;;;;28.17;35.09;98007.88;10369412;28;20053;-54
2023/09/02 10:40:39;;;;;;;5.88;4.88;;;;;;;28.70;34.32;98015.81;10370886;28;20056;-54
2023/09/02 10:45:40;;;;;;;8.00;6.10;;;;;;;29.03;34.13;97997.34;10369465;28;20072;-54
2023/09/02 10:50:40;;;;;;;5.85;5.00;;;;;;;28.97;32.84;98013.84;10362193;28;20120;-54
2023/09/02 10:56:23;;;;;;;5.80;5.20;;;;;;;28.96;32.99;98000.59;10364153;28;20080;-54
2023/09/02 11:01:22;;;;;;;5.90;5.30;;;;;;;29.06;32.18;98002.50;10298675;28;20076;-54
2023/09/02 11:06:21;;;;;;;6.50;5.18;;;;;;;29.02;31.74;98011.69;10326659;28;20060;-53
2023/09/02 11:11:20;;;;;;;5.82;4.93;;;;;;;28.94;32.11;97998.03;10326466;28;20104;-54
2023/09/02 11:16:19;;;;;;;6.38;5.10;;;;;;;28.93;31.46;97992.81;10328018;28;20072;-54
2023/09/02 11:21:40;;;;;;;5.80;4.90;;;;;;;29.23;31.18;97995.06;10326302;28;20042;-54
2023/09/02 11:26:51;;;;;;;5.50;4.97;;;;;;;29.20;31.06;97987.25;10327665;28;20064;-54
2023/09/02 11:32:04;;;;;;;5.35;4.60;;;;;;;29.25;31.35;97985.09;10327741;28;20112;-54
2023/09/02 11:37:03;;;;;;;7.35;5.22;;;;;;;29.29;31.45;97987.47;10326235;28;20061;-54
2023/09/02 11:42:09;;;;;;;6.00;5.30;;;;;;;29.67;31.20;97985.56;10326962;28;20065;-54
2023/09/02 11:47:13;;;;;;;6.95;5.55;;;;;;;29.69;31.10;97978.28;10325204;28;20056;-55
2023/09/02 11:52:13;;;;;;;6.25;5.10;;;;;;;29.95;30.71;97980.81;10324525;28;20064;-55
2023/09/02 11:57:17;;;;;;;6.75;5.13;;;;;;;30.25;29.85;97981.13;10326022;28;20069;-55
2023/09/02 12:02:17;;;;;;;7.47;5.30;;;;;;;30.15;30.07;97968.59;10325786;28;20061;-55
2023/09/02 12:07:17;;;;;;;6.32;5.30;;;;;;;30.12;29.26;97972.38;10325370;28;20060;-55
2023/09/02 12:12:16;;;;;;;7.03;5.20;;;;;;;30.13;29.18;97961.50;10325527;28;20068;-55
2023/09/02 12:17:16;;;;;;;6.50;5.78;;;;;;;30.32;29.57;97962.75;10325223;28;20962;-55
2023/09/02 12:22:15;;;;;;;7.30;6.35;;;;;;;30.27;30.34;97931.00;10325003;28;20064;-55
2023/09/02 12:27:17;;;;;;;6.90;6.20;;;;;;;30.23;29.97;97961.66;10324356;28;20064;-55
2023/09/02 12:32:16;;;;;;;6.63;5.93;;;;;;;29.87;30.51;97960.88;10323299;28;20144;-55
2023/09/02 12:37:20;;;;;;;9.27;7.18;;;;;;;29.94;30.45;97942.53;10325280;28;20033;-55
2023/09/02 12:42:26;;;;;;;8.30;6.50;;;;;;;29.97;31.03;97950.28;10325870;28;20076;-55
2023/09/02 12:47:26;;;;;;;7.50;6.80;;;;;;;29.78;31.02;97950.84;10327702;28;20075;-56
2023/09/02 12:52:27;;;;;;;7.18;6.38;;;;;;;30.05;30.79;97952.41;10326234;28;20535;-55
2023/09/02 12:57:34;;;;;;;7.35;6.45;;;;;;;30.28;29.63;97954.13;10326417;28;20777;-54
2023/09/02 13:02:34;;;;;;;8.60;7.27;;;;;;;30.47;30.01;97942.00;10326899;28;20473;-55
2023/09/02 13:07:34;;;;;;;7.18;6.47;;;;;;;30.47;28.91;97952.72;10326766;28;20061;-54
2023/09/02 13:12:33;;;;;;;9.32;6.47;;;;;;;30.59;29.05;97949.06;10325553;28;20071;-54
2023/09/02 13:17:32;;;;;;;8.02;7.00;;;;;;;30.26;29.04;97941.84;10325432;28;20065;-54
2023/09/02 13:22:36;;;;;;;9.68;6.97;;;;;;;30.15;29.74;97934.66;10325541;28;20061;-54
2023/09/02 13:27:36;;;;;;;8.50;6.70;;;;;;;30.60;29.70;97940.03;10325191;28;20137;-55
2023/09/02 13:32:35;;;;;;;9.65;7.45;;;;;;;30.75;29.20;97936.13;10324666;28;20177;-55
2023/09/02 13:37:35;;;;;;;7.20;6.40;;;;;;;30.92;28.97;97937.44;10326472;28;20032;-55
2023/09/02 13:42:34;;;;;;;9.02;6.90;;;;;;;30.60;28.95;97937.34;10322525;28;20065;-55
2023/09/02 13:47:33;;;;;;;10.50;7.22;;;;;;;30.02;30.02;97936.56;10322540;28;20060;-55
2023/09/02 13:52:32;;;;;;;7.55;6.57;;;;;;;29.67;30.28;97948.13;10321189;28;20157;-55
2023/09/02 13:57:33;;;;;;;10.52;6.80;;;;;;;29.39;31.08;97938.66;10322330;28;20061;-55
2023/09/02 14:02:35;;;;;;;8.55;6.65;;;;;;;29.30;31.06;97937.53;10321954;28;20057;-54
2023/09/02 14:07:34;;;;;;;18.27;7.78;;;;;;;29.21;31.47;97941.72;10321831;28;21036;-54
2023/09/02 14:12:33;;;;;;;8.95;7.40;;;;;;;29.23;31.11;97942.47;10328818;28;20766;-54
2023/09/02 14:17:35;;;;;;;8.68;6.88;;;;;;;29.25;31.07;97945.00;10329127;28;20996;-57
2023/09/02 14:22:34;;;;;;;8.45;7.07;;;;;;;29.25;31.07;97950.34;10328827;28;20096;-55
2023/09/02 14:27:37;;;;;;;11.95;7.18;;;;;;;29.19;30.86;97926.75;10329360;28;20045;-55
2023/09/02 14:32:36;;;;;;;7.93;6.82;;;;;;;29.31;30.76;97941.91;10328158;28;20061;-55
2023/09/02 14:37:35;;;;;;;11.48;6.93;;;;;;;28.97;31.28;97912.31;10328628;28;20108;-55
2023/09/02 14:42:34;;;;;;;9.05;6.47;;;;;;;28.97;30.79;97939.03;10329029;28;20060;-55
2023/09/02 14:47:33;;;;;;;9.55;7.53;;;;;;;28.81;31.14;97933.13;10327809;28;20121;-55
2023/09/02 14:52:36;;;;;;;8.35;6.50;;;;;;;28.77;31.02;97927.13;10328307;28;20026;-55
2023/09/02 14:57:35;;;;;;;9.45;7.15;;;;;;;28.61;31.04;97895.31;10326665;28;20076;-55
2023/09/02 15:02:45;;;;;;;10.63;7.57;;;;;;;28.87;31.16;97944.19;10326928;28;20065;-56
2023/09/02 15:07:45;;;;;;;8.65;6.72;;;;;;;28.77;30.70;97945.81;10327604;28;20069;-55
2023/09/02 15:12:47;;;;;;;8.20;6.75;;;;;;;28.88;30.92;97945.91;10327497;28;20073;-56
2023/09/02 15:17:46;;;;;;;9.02;6.47;;;;;;;28.70;30.67;97947.22;10326038;28;20060;-53
2023/09/02 15:22:55;;;;;;;8.48;7.07;;;;;;;28.68;31.09;97954.50;10326995;28;20030;-53
2023/09/02 15:27:56;;;;;;;8.98;6.45;;;;;;;28.71;31.10;97948.06;10328184;28;20140;-53
2023/09/02 15:33:00;;;;;;;10.35;6.72;;;;;;;28.64;30.74;97969.88;10326285;28;20532;-55
2023/09/02 15:38:00;;;;;;;8.40;6.22;;;;;;;28.60;30.90;97963.03;10327028;28;20056;-56
2023/09/02 15:43:03;;;;;;;8.20;6.65;;;;;;;28.65;31.32;97970.72;10308857;28;20095;-55
2023/09/02 15:48:02;;;;;;;8.18;7.07;;;;;;;28.64;31.43;97980.56;10325870;28;20148;-54
2023/09/02 15:53:01;;;;;;;11.18;7.78;;;;;;;28.45;31.67;97985.47;10322400;28;20124;-55
2023/09/02 15:58:00;;;;;;;9.68;7.35;;;;;;;28.05;31.83;97962.38;10313032;28;20061;-54
2023/09/02 16:02:59;;;;;;;9.68;6.90;;;;;;;28.11;32.09;97979.81;10305844;28;20576;-54
2023/09/02 16:07:58;;;;;;;11.93;7.30;;;;;;;28.00;32.62;97980.50;10324369;28;20820;-54
2023/09/02 16:12:57;;;;;;;16.52;7.85;;;;;;;27.94;33.28;97978.28;10323932;28;20068;-54
2023/09/02 16:17:56;;;;;;;12.82;7.38;;;;;;;27.94;33.50;97980.97;10325037;28;20108;-55
2023/09/02 16:22:55;;;;;;;9.27;7.05;;;;;;;27.93;33.68;97989.06;10323640;28;20556;-54
2023/09/02 16:27:54;;;;;;;8.38;7.32;;;;;;;27.82;33.40;97987.97;10325065;28;20488;-54
2023/09/02 16:32:53;;;;;;;12.45;7.75;;;;;;;27.53;33.96;97981.91;10320222;28;20030;-55
2023/09/02 16:37:52;;;;;;;11.85;8.43;;;;;;;27.49;34.00;98000.88;10320983;28;20117;-54
2023/09/02 16:42:51;;;;;;;10.68;7.63;;;;;;;27.41;34.32;98010.22;10323265;28;20029;-54
2023/09/02 16:47:50;;;;;;;14.02;7.97;;;;;;;27.12;34.83;97981.94;10323070;28;20043;-54
2023/09/02 16:52:51;;;;;;;11.43;9.90;;;;;;;27.06;34.78;98009.84;10322316;28;20116;-55
2023/09/02 16:57:51;;;;;;;12.43;10.60;;;;;;;26.86;35.54;98005.78;10322469;28;20072;-55
2023/09/02 17:02:52;;;;;;;11.43;9.15;;;;;;;26.65;35.40;98017.75;10323560;28;20060;-56
2023/09/02 17:07:52;;;;;;;9.70;8.20;;;;;;;26.42;35.89;98024.47;10322212;28;20776;-55
2023/09/02 17:12:52;;;;;;;13.05;8.70;;;;;;;26.29;36.24;98021.72;10321627;28;20149;-55
2023/09/02 17:17:52;;;;;;;17.80;12.70;;;;;;;26.14;36.95;98027.00;10323255;28;20045;-55
2023/09/02 17:22:51;;;;;;;18.58;12.80;;;;;;;25.93;38.17;98023.81;10319898;28;20157;-55
2023/09/02 17:27:55;;;;;;;16.33;10.90;;;;;;;25.66;38.70;98030.72;10322197;28;20456;-54
2023/09/02 17:32:54;;;;;;;12.75;9.48;;;;;;;25.42;39.17;98038.28;10322140;28;20133;-57
2023/09/02 17:37:53;;;;;;;16.10;11.50;;;;;;;25.25;39.57;98048.06;10319559;28;20057;-54
2023/09/02 17:42:55;;;;;;;15.07;10.27;;;;;;;25.05;40.47;98046.50;10324543;28;20060;-58
2023/09/02 17:47:54;;;;;;;14.40;10.20;;;;;;;24.85;40.77;98060.00;10330659;28;20907;-55
2023/09/02 17:52:53;;;;;;;11.60;9.13;;;;;;;24.59;41.45;98067.56;10331054;28;20550;-55
2023/09/02 17:57:52;;;;;;;12.88;10.48;;;;;;;24.37;41.90;98065.16;10331971;28;20080;-55
2023/09/02 18:02:51;;;;;;;14.65;10.30;;;;;;;24.18;42.11;98061.75;10332844;28;20035;-56
2023/09/02 18:07:50;;;;;;;13.50;10.35;;;;;;;24.02;42.86;98072.25;10329953;28;20492;-54
2023/09/02 18:12:50;;;;;;;13.20;10.65;;;;;;;23.46;43.22;98025.56;10331024;28;20037;-55
2023/09/02 18:17:49;;;;;;;12.23;10.23;;;;;;;23.73;43.84;98084.31;10332723;28;20087;-55
2023/09/02 18:22:48;;;;;;;13.25;9.85;;;;;;;23.48;44.11;98084.63;10332476;28;20042;-54
2023/09/02 18:27:52;;;;;;;16.20;9.40;;;;;;;23.33;44.40;98096.81;10332960;28;20029;-54
2023/09/02 18:32:51;;;;;;;12.07;9.73;;;;;;;22.96;44.65;98066.75;10333775;28;20507;-55
2023/09/02 18:37:50;;;;;;;12.40;10.20;;;;;;;23.03;45.35;98102.59;10329407;28;20115;-54
2023/09/02 18:42:49;;;;;;;14.82;10.07;;;;;;;22.83;45.57;98106.13;10308043;28;20885;-55
2023/09/02 18:47:50;;;;;;;13.27;9.75;;;;;;;22.67;45.70;98108.59;10326322;28;20045;-54
2023/09/02 18:52:49;;;;;;;14.00;9.75;;;;;;;22.59;45.93;98105.41;10325296;28;20129;-55
2023/09/02 18:57:48;;;;;;;12.60;10.18;;;;;;;22.47;46.19;98121.81;10325767;28;20038;-55
2023/09/02 19:02:47;;;;;;;11.98;9.55;;;;;;;22.21;46.48;98107.94;10326626;28;20389;-57
2023/09/02 19:07:46;;;;;;;15.45;9.80;;;;;;;22.06;46.61;98101.53;10326862;28;20033;-55
2023/09/02 19:12:45;;;;;;;15.25;9.80;;;;;;;22.16;46.85;98133.72;10325956;28;20204;-53
2023/09/02 19:17:44;;;;;;;10.80;9.07;;;;;;;22.06;47.44;98135.88;10326919;28;20124;-53
2023/09/02 19:22:44;;;;;;;11.45;8.85;;;;;;;21.93;48.11;98127.53;10326412;28;20021;-53
2023/09/02 19:27:45;;;;;;;11.73;9.20;;;;;;;21.85;48.68;98134.94;10326409;28;20064;-53
2023/09/02 19:32:44;;;;;;;12.80;9.38;;;;;;;21.75;49.03;98142.34;10321090;28;20149;-54
2023/09/02 19:37:48;;;;;;;13.57;9.70;;;;;;;21.58;49.08;98133.41;10324659;28;20036;-54
2023/09/02 19:42:49;;;;;;;10.85;9.30;;;;;;;21.48;49.74;98149.59;10323094;28;20064;-53
2023/09/02 19:47:48;;;;;;;12.75;9.30;;;;;;;21.39;50.24;98154.38;10326076;28;20065;-54
2023/09/02 19:52:47;;;;;;;13.35;9.82;;;;;;;21.25;50.70;98149.63;10325103;28;20580;-54
2023/09/02 19:57:46;;;;;;;13.07;10.32;;;;;;;20.98;51.22;98122.44;10325379;28;20579;-54
2023/09/02 20:02:45;;;;;;;13.77;9.70;;;;;;;21.08;51.68;98159.00;10325105;28;20051;-54
2023/09/02 20:07:44;;;;;;;23.67;10.80;;;;;;;20.56;52.01;98081.75;10325174;28;20403;-54
2023/09/02 20:12:45;;;;;;;14.63;10.98;;;;;;;20.88;53.24;98156.22;10324450;28;20030;-54
2023/09/02 20:17:44;;;;;;;14.57;10.75;;;;;;;20.85;53.21;98157.19;10323895;28;20065;-53
2023/09/02 20:22:45;;;;;;;15.98;10.90;;;;;;;20.76;53.85;98151.41;10324946;28;20061;-53
2023/09/02 20:27:44;;;;;;;17.92;12.10;;;;;;;20.73;54.21;98148.84;10324524;28;20116;-53
2023/09/02 20:32:43;;;;;;;14.00;11.55;;;;;;;20.61;55.20;98144.88;10323663;28;20031;-53
2023/09/02 20:37:42;;;;;;;16.13;11.85;;;;;;;20.53;55.49;98160.13;10320404;28;20030;-54
2023/09/02 20:42:41;;;;;;;14.82;12.00;;;;;;;20.22;56.24;98156.72;10323719;28;20129;-54
2023/09/02 20:47:40;;;;;;;16.52;11.85;;;;;;;19.91;56.69;98111.22;10323615;28;20021;-54
2023/09/02 20:52:39;;;;;;;16.70;11.13;;;;;;;20.10;57.14;98172.94;10322541;28;20088;-53
2023/09/02 20:57:38;;;;;;;15.55;11.32;;;;;;;19.99;57.84;98169.78;10323271;28;20045;-55
2023/09/02 21:02:37;;;;;;;12.90;10.75;;;;;;;19.92;58.07;98168.25;10323693;28;20113;-53
2023/09/02 21:07:36;;;;;;;16.77;12.18;;;;;;;19.87;58.54;98166.63;10323834;28;20121;-53
2023/09/02 21:12:35;;;;;;;15.82;12.90;;;;;;;19.82;58.66;98167.69;10322007;28;20052;-54
2023/09/02 21:17:34;;;;;;;15.73;11.75;;;;;;;19.86;58.49;98169.31;10315480;28;20049;-56
2023/09/02 21:22:35;;;;;;;14.48;11.23;;;;;;;19.87;58.44;98171.03;10320300;28;20025;-53
2023/09/02 21:27:34;;;;;;;14.32;11.82;;;;;;;19.90;58.27;98159.53;10322265;28;20125;-53
2023/09/02 21:32:34;;;;;;;14.75;11.75;;;;;;;19.84;58.05;98139.56;10322931;28;20145;-53
2023/09/02 21:37:34;;;;;;;15.63;11.70;;;;;;;19.89;58.43;98163.97;10320854;28;20124;-53
2023/09/02 21:42:33;;;;;;;15.10;10.95;;;;;;;19.89;58.26;98163.97;10320916;28;20068;-53
2023/09/02 21:47:32;;;;;;;14.13;11.27;;;;;;;19.87;58.41;98160.50;10311369;28;20465;-54
2023/09/02 21:52:31;;;;;;;15.38;12.05;;;;;;;19.82;59.42;98165.06;10319996;28;20837;-55
2023/09/02 21:57:30;;;;;;;18.35;11.63;;;;;;;19.69;60.02;98171.63;10263291;28;20126;-54
2023/09/02 22:02:29;;;;;;;14.02;11.88;;;;;;;19.42;60.51;98164.50;10274441;28;20244;-53
2023/09/02 22:07:28;;;;;;;16.48;11.90;;;;;;;19.30;60.88;98177.13;10319768;28;20065;-53
2023/09/02 22:12:27;;;;;;;16.15;12.02;;;;;;;19.27;60.62;98178.09;10316736;28;20033;-53
2023/09/02 22:17:26;;;;;;;13.23;11.20;;;;;;;19.22;61.21;98177.38;10317125;28;20034;-53
2023/09/02 22:22:24;;;;;;;15.20;11.73;;;;;;;19.22;60.92;98182.63;10319626;28;20411;-53
2023/09/02 22:27:24;;;;;;;15.20;12.10;;;;;;;19.13;61.56;98178.50;10319752;28;20151;-53
2023/09/02 22:32:22;;;;;;;15.68;11.02;;;;;;;19.09;61.91;98181.25;10325667;28;20128;-54
2023/09/02 22:37:21;;;;;;;13.48;11.57;;;;;;;18.80;62.40;98151.38;10328440;28;20025;-53
2023/09/02 22:42:20;;;;;;;14.60;11.35;;;;;;;18.89;62.76;98168.69;10330661;28;20512;-53
2023/09/02 22:47:19;;;;;;;16.80;12.75;;;;;;;18.90;63.32;98175.66;10331488;28;20112;-54
2023/09/02 22:52:19;;;;;;;14.20;12.35;;;;;;;18.83;63.57;98177.63;10329470;28;21064;-54
2023/09/02 22:57:17;;;;;;;13.60;11.40;;;;;;;18.77;63.88;98180.41;10331399;28;20087;-54
2023/09/02 23:02:16;;;;;;;15.43;12.10;;;;;;;18.63;64.74;98179.88;10331492;28;20033;-52
2023/09/02 23:07:15;;;;;;;16.95;13.07;;;;;;;18.61;65.61;98186.03;10331196;28;20118;-53
2023/09/02 23:12:14;;;;;;;16.13;11.68;;;;;;;18.54;65.84;98179.19;10330519;28;20065;-53